Estación Meteorológica Peña el Pijo (Robertgarden) [ 06/14/24 09:50:54 CEST ]

Fecha Hora Presion(HPa) Temp (°C) Humedad % Rocio (°C) Viento ( m/s) Direccion Lluvia 1Hora(mm) Lluvia 24H(mm) LLuvia Total(mm)
2008-Oct-29 01:01:23 997.700 5.4 84 2.9       2.07 112.92
2008-Oct-29 02:03:14 998.000 5.0 84 2.5       2.07 112.92
2008-Oct-29 03:01:16 998.800 3.6 82 0.8       2.07 112.92
2008-Oct-29 04:01:12 999.000 2.5 82 -0.3       2.07 112.92
2008-Oct-29 05:01:14 999.800 2.2 82 -0.6       2.07 112.92
2008-Oct-29 06:01:12 999.800 2.5 78 -1.0       2.07 112.92
2008-Oct-29 07:01:14 1000.400 2.5 74 -1.7       2.07 112.92
2008-Oct-29 08:01:14 1001.200 2.4 75 -1.6 0.8 SSW   2.07 112.92
2008-Oct-29 09:01:22 1002.200 2.8 77 -0.8       1.55 112.92
2008-Oct-29 10:01:17 1002.900 4.5 73 0.1       1.55 112.92
2008-Oct-29 11:01:13 1003.300 7.2 60 -0.0       0.51 112.92
2008-Oct-29 12:01:18 1003.600 8.1 57 0.0       0.51 112.92
2008-Oct-29 13:01:14 1004.000 7.7 57 -0.3 0.7 NNE     112.92
2008-Oct-29 14:01:14 1003.900 6.6 60 -0.6 0.9 NW     112.92
2008-Oct-29 15:01:19 1003.500 8.8 55 0.2 2.7 SSE     112.92
2008-Oct-29 16:01:12 1004.400 6.9 59 -0.6         112.92
2008-Oct-29 17:01:16 1004.900 6.4 64 0.1         112.92
2008-Oct-29 18:01:13 1005.200 4.6 71 -0.2         112.92
2008-Oct-29 19:01:14 1005.700 3.2 80 0.1         112.92
2008-Oct-29 20:01:14 1006.100 1.9 83 -0.7         112.92
2008-Oct-29 21:01:17 1006.000 3.6 83 1.0         112.92
2008-Oct-29 22:01:19 1006.500 2.4 85 0.1         112.92
2008-Oct-29 23:01:19 1006.900 1.5 88 -0.3         112.92

Temperatura Máxima:    Temperatura Mínima:
Presión Máxima:1006.900 Hpa    Presión Mínima:997.700 Hpa


Volver